Time;durP1;ratioP1;P1;durP2;ratioP2;P2;SDS_P1;SDS_P2;PMS_P1;PMS_P2;Temp;Humidity;BMP_temperature;BMP_pressure;BME280_temperature;BME280_humidity;BME280_pressure;Samples;Min_cycle;Max_cycle;Signal;HPM_P1;HPM_P2
2022/04/06 00:00:28;;;;;;;0.10;0.10;;;;;;;;;;1859307;76;26312;-35
2022/04/06 00:02:56;;;;;;;1.12;0.20;;;;;;;;;;1859641;76;26250;-38
2022/04/06 00:05:23;;;;;;;0.17;0.17;;;;;;;;;;1869421;76;26382;-38
2022/04/06 00:07:50;;;;;;;0.28;0.28;;;;;;;;;;1860015;76;26327;-34
2022/04/06 00:10:17;;;;;;;0.20;0.20;;;;;;;;;;1855365;76;26285;-36
2022/04/06 00:12:45;;;;;;;0.20;0.20;;;;;;;;;;1862061;76;26824;-39
2022/04/06 00:15:12;;;;;;;0.10;0.10;;;;;;;;;;1860508;76;26799;-37
2022/04/06 00:17:40;;;;;;;0.10;0.10;;;;;;;;;;1857348;76;26249;-35
2022/04/06 00:20:09;;;;;;;0.20;0.17;;;;;;;;;;1860633;76;26659;-38
2022/04/06 00:22:37;;;;;;;0.10;0.10;;;;;;;;;;1851933;76;26265;-39
2022/04/06 00:25:05;;;;;;;1.55;0.25;;;;;;;;;;1857189;76;26783;-37
2022/04/06 00:27:32;;;;;;;0.35;0.20;;;;;;;;;;1864883;76;25885;-36
2022/04/06 00:29:59;;;;;;;0.20;0.20;;;;;;;;;;1857556;76;26272;-35
2022/04/06 00:32:27;;;;;;;0.13;0.10;;;;;;;;;;1860853;76;26261;-42
2022/04/06 00:37:39;;;;;;;0.10;0.10;;;;;;;;;;1862675;76;26277;-34
2022/04/06 00:40:12;;;;;;;0.37;0.37;;;;;;;;;;1860893;76;26863;-43
2022/04/06 00:42:37;;;;;;;0.10;0.10;;;;;;;;;;1854896;76;26284;-42
2022/04/06 00:45:05;;;;;;;0.20;0.20;;;;;;;;;;1856880;76;26909;-36
2022/04/06 00:47:32;;;;;;;0.35;0.20;;;;;;;;;;1857920;76;26351;-36
2022/04/06 00:50:00;;;;;;;0.53;0.13;;;;;;;;;;1858414;76;26257;-36
2022/04/06 00:52:28;;;;;;;0.20;0.20;;;;;;;;;;1843815;76;26838;-40
2022/04/06 00:54:55;;;;;;;0.10;0.10;;;;;;;;;;1856982;76;26289;-37
2022/04/06 00:57:23;;;;;;;0.10;0.10;;;;;;;;;;1860712;76;26362;-34
2022/04/06 00:59:51;;;;;;;0.15;0.15;;;;;;;;;;1854736;76;26743;-39
2022/04/06 01:02:19;;;;;;;0.20;0.20;;;;;;;;;;1858524;76;26327;-38
2022/04/06 01:04:46;;;;;;;0.10;0.10;;;;;;;;;;1859254;76;26265;-36
2022/04/06 01:07:13;;;;;;;2.65;0.20;;;;;;;;;;1854840;76;26253;-37
2022/04/06 01:09:41;;;;;;;0.10;0.10;;;;;;;;;;1848169;76;26785;-36
2022/04/06 01:12:08;;;;;;;0.20;0.20;;;;;;;;;;1848212;76;26264;-41
2022/04/06 01:14:36;;;;;;;0.10;0.10;;;;;;;;;;1848435;77;26288;-38
2022/04/06 01:17:07;;;;;;;0.10;0.10;;;;;;;;;;1842533;76;26249;-38
2022/04/06 01:19:35;;;;;;;0.20;0.20;;;;;;;;;;1859038;76;26253;-36
2022/04/06 01:22:07;;;;;;;0.30;0.30;;;;;;;;;;1841825;76;26256;-40
2022/04/06 01:24:34;;;;;;;0.20;0.13;;;;;;;;;;1846368;76;26266;-36
2022/04/06 01:27:02;;;;;;;0.10;0.10;;;;;;;;;;1853449;76;26262;-34
2022/04/06 01:29:30;;;;;;;0.10;0.10;;;;;;;;;;1847006;76;26273;-40
2022/04/06 01:32:08;;;;;;;0.20;0.10;;;;;;;;;;1846609;76;26365;-42
2022/04/06 01:34:35;;;;;;;0.23;0.23;;;;;;;;;;1847021;76;26772;-42
2022/04/06 01:37:04;;;;;;;0.20;0.20;;;;;;;;;;1861040;76;26697;-39
2022/04/06 01:39:32;;;;;;;0.10;0.10;;;;;;;;;;1850306;76;26712;-35
2022/04/06 01:42:01;;;;;;;0.23;0.20;;;;;;;;;;1845948;76;26251;-34
2022/04/06 01:44:29;;;;;;;0.15;0.15;;;;;;;;;;1848399;76;26296;-35
2022/04/06 01:46:57;;;;;;;0.33;0.15;;;;;;;;;;1847941;76;26796;-35
2022/04/06 01:52:13;;;;;;;0.45;0.20;;;;;;;;;;1851708;76;26706;-42
2022/04/06 01:54:42;;;;;;;0.20;0.20;;;;;;;;;;1852420;76;26614;-44
2022/04/06 01:57:10;;;;;;;0.03;0.03;;;;;;;;;;1848591;76;26331;-36
2022/04/06 01:59:37;;;;;;;0.25;0.10;;;;;;;;;;1870317;76;26359;-36
2022/04/06 02:02:05;;;;;;;0.20;0.20;;;;;;;;;;1862276;76;26297;-40
2022/04/06 02:04:32;;;;;;;0.30;0.30;;;;;;;;;;1862339;75;26744;-36
2022/04/06 02:07:00;;;;;;;0.15;0.15;;;;;;;;;;1874130;76;26751;-35
2022/04/06 02:09:27;;;;;;;0.20;0.20;;;;;;;;;;1864493;75;26341;-34
2022/04/06 02:11:55;;;;;;;0.10;0.10;;;;;;;;;;1873739;75;26256;-35
2022/04/06 02:14:24;;;;;;;0.20;0.20;;;;;;;;;;1859660;76;26292;-36
2022/04/06 02:16:51;;;;;;;0.30;0.20;;;;;;;;;;1864646;75;26249;-36
2022/04/06 02:19:18;;;;;;;0.10;0.10;;;;;;;;;;1863430;76;26233;-36
2022/04/06 02:21:46;;;;;;;1.07;0.10;;;;;;;;;;1865910;76;26736;-36
2022/04/06 02:24:13;;;;;;;0.10;0.10;;;;;;;;;;1866384;76;26698;-36
2022/04/06 02:26:41;;;;;;;0.20;0.20;;;;;;;;;;1876357;75;26280;-38
2022/04/06 02:29:08;;;;;;;0.10;0.10;;;;;;;;;;1873272;75;26829;-40
2022/04/06 02:31:35;;;;;;;0.23;0.23;;;;;;;;;;1862344;76;26809;-35
2022/04/06 02:34:03;;;;;;;0.20;0.20;;;;;;;;;;1870726;76;26241;-39
2022/04/06 02:36:30;;;;;;;0.20;0.20;;;;;;;;;;1870873;76;26248;-37
2022/04/06 02:38:57;;;;;;;0.20;0.20;;;;;;;;;;1876055;75;26747;-36
2022/04/06 02:41:24;;;;;;;0.20;0.20;;;;;;;;;;1877332;76;26782;-35
2022/04/06 02:43:52;;;;;;;0.20;0.20;;;;;;;;;;1864245;76;26331;-36
2022/04/06 02:46:19;;;;;;;0.40;0.28;;;;;;;;;;1869227;75;26268;-37
2022/04/06 02:48:46;;;;;;;0.13;0.13;;;;;;;;;;1882036;75;26740;-43
2022/04/06 02:51:14;;;;;;;0.10;0.10;;;;;;;;;;1871267;75;26302;-39
2022/04/06 02:53:41;;;;;;;0.30;0.30;;;;;;;;;;1867134;75;27153;-34
2022/04/06 02:56:09;;;;;;;0.23;0.20;;;;;;;;;;1861278;76;26252;-40
2022/04/06 02:58:36;;;;;;;0.30;0.20;;;;;;;;;;1862209;76;26232;-41
2022/04/06 03:01:03;;;;;;;0.25;0.20;;;;;;;;;;1879804;76;26246;-35
2022/04/06 03:03:30;;;;;;;0.55;0.20;;;;;;;;;;1862692;76;26918;-37
2022/04/06 03:05:58;;;;;;;0.13;0.13;;;;;;;;;;1851199;76;26721;-36
2022/04/06 03:08:25;;;;;;;0.10;0.10;;;;;;;;;;1855685;76;26282;-40
2022/04/06 03:10:52;;;;;;;0.20;0.20;;;;;;;;;;1853916;76;26354;-39
2022/04/06 03:13:20;;;;;;;0.20;0.20;;;;;;;;;;1851686;76;26261;-41
2022/04/06 03:15:47;;;;;;;0.20;0.20;;;;;;;;;;1857072;76;26264;-36
2022/04/06 03:18:14;;;;;;;0.10;0.10;;;;;;;;;;1857360;76;26249;-35
2022/04/06 03:20:41;;;;;;;0.10;0.10;;;;;;;;;;1854276;76;26350;-35
2022/04/06 03:23:09;;;;;;;0.10;0.10;;;;;;;;;;1863237;76;26315;-42
2022/04/06 03:25:36;;;;;;;0.15;0.10;;;;;;;;;;1875664;76;26338;-38
2022/04/06 03:28:04;;;;;;;0.10;0.10;;;;;;;;;;1858696;76;26253;-36
2022/04/06 03:30:31;;;;;;;0.10;0.10;;;;;;;;;;1858111;76;26315;-39
2022/04/06 03:32:59;;;;;;;0.10;0.10;;;;;;;;;;1859895;76;26770;-37
2022/04/06 03:35:26;;;;;;;0.20;0.20;;;;;;;;;;1857236;76;26257;-36
2022/04/06 03:37:53;;;;;;;0.55;0.10;;;;;;;;;;1857978;76;26315;-39
2022/04/06 03:40:22;;;;;;;0.20;0.20;;;;;;;;;;1857354;76;26448;-39
2022/04/06 03:42:50;;;;;;;0.10;0.10;;;;;;;;;;1859491;76;26273;-35
2022/04/06 03:45:17;;;;;;;0.10;0.10;;;;;;;;;;1861428;76;26245;-40
2022/04/06 03:47:45;;;;;;;0.20;0.20;;;;;;;;;;1857526;76;26241;-35
2022/04/06 03:50:12;;;;;;;0.30;0.20;;;;;;;;;;1857243;76;26365;-34
2022/04/06 03:52:39;;;;;;;0.20;0.20;;;;;;;;;;1856845;76;26641;-37
2022/04/06 03:55:09;;;;;;;0.10;0.10;;;;;;;;;;1845834;76;26386;-36
2022/04/06 03:57:36;;;;;;;0.33;0.20;;;;;;;;;;1857317;76;26280;-40
2022/04/06 04:00:04;;;;;;;0.15;0.15;;;;;;;;;;1854367;76;26309;-39
2022/04/06 04:02:32;;;;;;;0.00;0.00;;;;;;;;;;1848571;76;26965;-39
2022/04/06 04:05:00;;;;;;;0.20;0.20;;;;;;;;;;1847917;76;26242;-34
2022/04/06 04:07:29;;;;;;;0.10;0.10;;;;;;;;;;1836238;76;26280;-36
2022/04/06 04:09:56;;;;;;;0.35;0.10;;;;;;;;;;1845063;76;26325;-39
2022/04/06 04:12:24;;;;;;;0.08;0.08;;;;;;;;;;1867006;76;26341;-38
2022/04/06 04:14:51;;;;;;;0.10;0.10;;;;;;;;;;1870427;76;26241;-37
2022/04/06 04:17:18;;;;;;;0.20;0.20;;;;;;;;;;1846402;76;26257;-36
2022/04/06 04:19:45;;;;;;;0.20;0.20;;;;;;;;;;1852967;76;26257;-35
2022/04/06 04:22:13;;;;;;;0.10;0.10;;;;;;;;;;1856654;76;26774;-40
2022/04/06 04:24:40;;;;;;;0.10;0.10;;;;;;;;;;1854593;76;26330;-39
2022/04/06 04:27:08;;;;;;;0.10;0.10;;;;;;;;;;1850818;76;26245;-37
2022/04/06 04:29:36;;;;;;;0.15;0.15;;;;;;;;;;1843094;76;26801;-37
2022/04/06 04:32:04;;;;;;;0.15;0.15;;;;;;;;;;1851321;76;26307;-36
2022/04/06 04:34:31;;;;;;;0.10;0.10;;;;;;;;;;1851606;76;26567;-40
2022/04/06 04:36:59;;;;;;;0.70;0.10;;;;;;;;;;1848338;76;26238;-39
2022/04/06 04:39:26;;;;;;;0.10;0.10;;;;;;;;;;1847786;76;26281;-36
2022/04/06 04:41:53;;;;;;;0.28;0.10;;;;;;;;;;1848008;76;26768;-41
2022/04/06 04:44:21;;;;;;;0.45;0.20;;;;;;;;;;1851292;76;26289;-38
2022/04/06 04:46:48;;;;;;;0.10;0.10;;;;;;;;;;1855976;76;26788;-37
2022/04/06 04:49:15;;;;;;;0.08;0.08;;;;;;;;;;1843678;76;26720;-37
2022/04/06 04:51:43;;;;;;;1.55;0.20;;;;;;;;;;1851299;76;26788;-37
2022/04/06 04:54:10;;;;;;;0.10;0.10;;;;;;;;;;1850538;76;26724;-40
2022/04/06 04:56:40;;;;;;;0.10;0.10;;;;;;;;;;1851429;76;26312;-34
2022/04/06 04:59:06;;;;;;;0.20;0.20;;;;;;;;;;1853198;76;26542;-35
2022/04/06 05:01:33;;;;;;;0.00;0.00;;;;;;;;;;1854355;76;26282;-37
2022/04/06 05:04:01;;;;;;;0.10;0.10;;;;;;;;;;1852384;76;26395;-40
2022/04/06 05:06:28;;;;;;;0.55;0.20;;;;;;;;;;1845950;76;26713;-35
2022/04/06 05:08:55;;;;;;;0.00;0.00;;;;;;;;;;1847644;76;26771;-40
2022/04/06 05:11:23;;;;;;;0.20;0.20;;;;;;;;;;1847010;76;26249;-37
2022/04/06 05:13:50;;;;;;;0.05;0.05;;;;;;;;;;1847563;76;26274;-35
2022/04/06 05:16:17;;;;;;;0.10;0.10;;;;;;;;;;1851313;76;26202;-35
2022/04/06 05:18:44;;;;;;;0.10;0.10;;;;;;;;;;1851116;76;26359;-35
2022/04/06 05:21:12;;;;;;;0.10;0.10;;;;;;;;;;1853243;76;26303;-42
2022/04/06 05:23:39;;;;;;;0.20;0.20;;;;;;;;;;1847420;76;26253;-33
2022/04/06 05:26:07;;;;;;;0.95;0.30;;;;;;;;;;1851269;76;26327;-37
2022/04/06 05:28:34;;;;;;;0.25;0.25;;;;;;;;;;1848056;76;26237;-35
2022/04/06 05:31:01;;;;;;;0.23;0.23;;;;;;;;;;1850329;76;26250;-36
2022/04/06 05:33:29;;;;;;;0.75;0.23;;;;;;;;;;1846603;76;26245;-33
2022/04/06 05:35:56;;;;;;;0.20;0.20;;;;;;;;;;1850371;76;26198;-42
2022/04/06 05:38:23;;;;;;;0.80;0.20;;;;;;;;;;1851355;76;26226;-43
2022/04/06 05:40:50;;;;;;;0.20;0.20;;;;;;;;;;1847561;76;26242;-34
2022/04/06 05:43:18;;;;;;;0.15;0.15;;;;;;;;;;1847525;76;26264;-40
2022/04/06 05:45:45;;;;;;;0.40;0.25;;;;;;;;;;1850267;76;26727;-36
2022/04/06 05:48:12;;;;;;;0.30;0.28;;;;;;;;;;1846895;76;26253;-40
2022/04/06 05:50:39;;;;;;;0.75;0.30;;;;;;;;;;1848426;76;26248;-37
2022/04/06 05:53:07;;;;;;;2.75;0.40;;;;;;;;;;1850373;76;26335;-35
2022/04/06 05:55:34;;;;;;;3.00;0.35;;;;;;;;;;1848391;76;26240;-34
2022/04/06 05:58:01;;;;;;;0.82;0.40;;;;;;;;;;1851211;76;26249;-36
2022/04/06 06:00:28;;;;;;;0.30;0.30;;;;;;;;;;1850174;76;26363;-33
2022/04/06 06:02:56;;;;;;;3.77;0.50;;;;;;;;;;1857496;76;26240;-38
2022/04/06 06:05:23;;;;;;;1.10;0.50;;;;;;;;;;1857581;76;26253;-37
2022/04/06 06:07:50;;;;;;;2.90;0.50;;;;;;;;;;1862015;76;26752;-41
2022/04/06 06:10:18;;;;;;;1.85;0.65;;;;;;;;;;1858319;76;26884;-42
2022/04/06 06:12:45;;;;;;;1.20;0.40;;;;;;;;;;1857360;76;27166;-38
2022/04/06 06:15:12;;;;;;;2.47;0.50;;;;;;;;;;1858139;76;26222;-39
2022/04/06 06:17:40;;;;;;;4.17;0.57;;;;;;;;;;1867469;76;26307;-34
2022/04/06 06:20:08;;;;;;;0.47;0.40;;;;;;;;;;1861335;76;26410;-37
2022/04/06 06:22:36;;;;;;;1.45;0.50;;;;;;;;;;1857341;76;26330;-34
2022/04/06 06:25:04;;;;;;;0.20;0.20;;;;;;;;;;1845296;76;26372;-37
2022/04/06 06:27:32;;;;;;;1.50;0.40;;;;;;;;;;1855713;76;26241;-35
2022/04/06 06:30:00;;;;;;;0.65;0.30;;;;;;;;;;1858092;76;26291;-41
2022/04/06 06:32:27;;;;;;;0.35;0.30;;;;;;;;;;1863811;76;26322;-39
2022/04/06 06:34:54;;;;;;;4.30;1.22;;;;;;;;;;1854045;76;26828;-35
2022/04/06 06:37:21;;;;;;;2.25;0.45;;;;;;;;;;1871855;76;26759;-40
2022/04/06 06:39:49;;;;;;;2.65;0.30;;;;;;;;;;1857843;76;26716;-37
2022/04/06 06:42:17;;;;;;;2.85;0.30;;;;;;;;;;1857600;76;26297;-39
2022/04/06 06:44:44;;;;;;;0.82;0.35;;;;;;;;;;1862349;76;26289;-44
2022/04/06 06:47:12;;;;;;;3.55;0.40;;;;;;;;;;1857350;76;26245;-37
2022/04/06 06:49:45;;;;;;;1.15;0.40;;;;;;;;;;1844921;76;26689;-39
2022/04/06 06:52:08;;;;;;;3.98;0.70;;;;;;;;;;1852903;76;26245;-41
2022/04/06 06:54:37;;;;;;;3.87;0.60;;;;;;;;;;1856058;76;26265;-36
2022/04/06 06:57:04;;;;;;;2.12;0.70;;;;;;;;;;1859643;76;26563;-38
2022/04/06 06:59:31;;;;;;;1.27;0.60;;;;;;;;;;1857717;76;26297;-38
2022/04/06 07:01:59;;;;;;;2.33;0.70;;;;;;;;;;1859868;76;26269;-40
2022/04/06 07:04:26;;;;;;;4.72;0.70;;;;;;;;;;1863489;76;26265;-33
2022/04/06 07:06:53;;;;;;;6.78;0.80;;;;;;;;;;1861858;76;26320;-35
2022/04/06 07:09:21;;;;;;;3.00;0.72;;;;;;;;;;1865654;76;26748;-36
2022/04/06 07:11:48;;;;;;;9.48;0.70;;;;;;;;;;1863694;75;26326;-40
2022/04/06 07:14:16;;;;;;;2.65;0.57;;;;;;;;;;1862119;75;26303;-37
2022/04/06 07:16:43;;;;;;;4.25;0.60;;;;;;;;;;1863386;75;26236;-42
2022/04/06 07:19:10;;;;;;;4.75;0.90;;;;;;;;;;1874925;75;26340;-35
2022/04/06 07:21:37;;;;;;;8.45;0.88;;;;;;;;;;1860960;75;26241;-39
2022/04/06 07:24:05;;;;;;;4.30;1.30;;;;;;;;;;1859224;76;26262;-36
2022/04/06 07:26:32;;;;;;;3.05;0.93;;;;;;;;;;1856157;76;26327;-37
2022/04/06 07:29:00;;;;;;;6.35;1.00;;;;;;;;;;1861870;75;26335;-35
2022/04/06 07:31:27;;;;;;;3.62;0.60;;;;;;;;;;1861224;77;26824;-34
2022/04/06 07:33:54;;;;;;;5.33;0.70;;;;;;;;;;1858296;76;26835;-40
2022/04/06 07:36:22;;;;;;;9.15;0.95;;;;;;;;;;1858931;77;26245;-40
2022/04/06 07:38:49;;;;;;;6.55;0.72;;;;;;;;;;1862776;77;26292;-43
2022/04/06 07:41:17;;;;;;;2.75;0.93;;;;;;;;;;1863540;76;26241;-41
2022/04/06 07:43:45;;;;;;;5.35;0.70;;;;;;;;;;1861029;76;26748;-35
2022/04/06 07:46:13;;;;;;;5.05;0.80;;;;;;;;;;1863568;75;26281;-43
2022/04/06 07:48:41;;;;;;;6.28;0.98;;;;;;;;;;1865524;75;26700;-43
2022/04/06 07:51:08;;;;;;;4.80;0.60;;;;;;;;;;1858838;75;26327;-33
2022/04/06 07:53:36;;;;;;;3.50;0.68;;;;;;;;;;1862987;75;26264;-38
2022/04/06 07:56:03;;;;;;;4.25;0.80;;;;;;;;;;1861750;76;26276;-48
2022/04/06 07:58:30;;;;;;;2.00;0.60;;;;;;;;;;1855472;76;26358;-38
2022/04/06 08:00:58;;;;;;;1.25;0.55;;;;;;;;;;1877551;75;26253;-45
2022/04/06 08:03:25;;;;;;;3.47;1.20;;;;;;;;;;1882437;75;26291;-44
2022/04/06 08:05:52;;;;;;;3.15;0.57;;;;;;;;;;1882131;75;26337;-36
2022/04/06 08:08:20;;;;;;;6.03;0.60;;;;;;;;;;1883771;75;26303;-39
2022/04/06 08:10:47;;;;;;;1.10;0.37;;;;;;;;;;1886226;75;26339;-43
2022/04/06 08:13:14;;;;;;;4.62;0.65;;;;;;;;;;1882962;75;26340;-37
2022/04/06 08:15:42;;;;;;;2.50;0.62;;;;;;;;;;1884453;76;26606;-35
2022/04/06 08:18:11;;;;;;;3.92;0.60;;;;;;;;;;1887208;76;26260;-40
2022/04/06 08:20:38;;;;;;;1.32;0.50;;;;;;;;;;1880426;76;26304;-40
2022/04/06 08:23:05;;;;;;;3.55;0.50;;;;;;;;;;1876975;76;26792;-35
2022/04/06 08:25:33;;;;;;;5.42;0.50;;;;;;;;;;1872704;76;26284;-34
2022/04/06 08:28:00;;;;;;;0.47;0.30;;;;;;;;;;1884136;76;26609;-33
2022/04/06 08:30:27;;;;;;;1.70;0.50;;;;;;;;;;1880868;76;26293;-44
2022/04/06 08:32:58;;;;;;;2.27;0.57;;;;;;;;;;1865757;76;26324;-44
2022/04/06 08:35:25;;;;;;;3.30;0.62;;;;;;;;;;1864113;75;26338;-42
2022/04/06 08:37:52;;;;;;;2.30;0.28;;;;;;;;;;1858473;76;26239;-35
2022/04/06 08:40:21;;;;;;;2.55;0.85;;;;;;;;;;1886337;76;26676;-35
2022/04/06 08:42:49;;;;;;;6.22;0.50;;;;;;;;;;1885516;76;26859;-38
2022/04/06 08:45:16;;;;;;;1.92;0.50;;;;;;;;;;1877450;75;26228;-40
2022/04/06 08:47:45;;;;;;;1.02;0.35;;;;;;;;;;1882907;76;26546;-35
2022/04/06 08:50:12;;;;;;;0.93;0.30;;;;;;;;;;1885099;76;26221;-37
2022/04/06 08:52:41;;;;;;;0.60;0.30;;;;;;;;;;1871522;76;26238;-49
2022/04/06 08:55:08;;;;;;;0.53;0.30;;;;;;;;;;1884843;76;27024;-42
2022/04/06 08:57:36;;;;;;;1.20;0.28;;;;;;;;;;1881534;74;26331;-40
2022/04/06 09:00:05;;;;;;;2.47;0.30;;;;;;;;;;1858399;76;26236;-38
2022/04/06 09:02:32;;;;;;;0.82;0.55;;;;;;;;;;1859071;76;26234;-42
2022/04/06 09:05:01;;;;;;;0.78;0.33;;;;;;;;;;1851276;76;26312;-42
2022/04/06 09:07:28;;;;;;;2.42;0.40;;;;;;;;;;1864532;76;26244;-40
2022/04/06 09:09:56;;;;;;;4.67;0.78;;;;;;;;;;1855262;75;26895;-34
2022/04/06 09:12:24;;;;;;;0.62;0.50;;;;;;;;;;1850623;76;26815;-41
2022/04/06 09:14:53;;;;;;;1.85;0.37;;;;;;;;;;1857129;75;26218;-35
2022/04/06 09:17:20;;;;;;;3.15;0.40;;;;;;;;;;1873852;76;26304;-43
2022/04/06 09:19:53;;;;;;;0.50;0.40;;;;;;;;;;1872054;76;26824;-37
2022/04/06 09:22:18;;;;;;;1.60;0.47;;;;;;;;;;1871750;76;26246;-37
2022/04/06 09:24:47;;;;;;;2.75;0.40;;;;;;;;;;1873281;76;26241;-39
2022/04/06 09:27:14;;;;;;;2.05;0.40;;;;;;;;;;1855917;75;26221;-34
2022/04/06 09:29:41;;;;;;;4.60;0.45;;;;;;;;;;1857468;75;26162;-42
2022/04/06 09:32:10;;;;;;;1.75;0.60;;;;;;;;;;1852282;75;26295;-34
2022/04/06 09:34:42;;;;;;;3.33;0.98;;;;;;;;;;1863455;76;26308;-35
2022/04/06 09:37:27;;;;;;;4.05;1.20;;;;;;;;;;1851340;76;26283;-36
2022/04/06 09:39:56;;;;;;;1.32;1.00;;;;;;;;;;1848654;76;26740;-33
2022/04/06 09:42:27;;;;;;;3.02;1.10;;;;;;;;;;1860320;76;26605;-33
2022/04/06 09:47:44;;;;;;;1.12;0.95;;;;;;;;;;1866672;75;26298;-39
2022/04/06 09:50:26;;;;;;;2.42;1.10;;;;;;;;;;1851434;76;26302;-35
2022/04/06 09:53:00;;;;;;;4.05;1.42;;;;;;;;;;1850091;76;26532;-36
2022/04/06 09:55:27;;;;;;;1.57;1.47;;;;;;;;;;1854531;76;26300;-36
2022/04/06 09:57:56;;;;;;;2.27;1.45;;;;;;;;;;1860191;75;26289;-42
2022/04/06 10:00:25;;;;;;;4.42;2.08;;;;;;;;;;1853865;75;27389;-40
2022/04/06 10:02:53;;;;;;;3.70;2.15;;;;;;;;;;1847935;76;26252;-39
2022/04/06 10:05:22;;;;;;;7.70;2.80;;;;;;;;;;1851215;76;26246;-33
2022/04/06 10:07:51;;;;;;;18.70;6.90;;;;;;;;;;1853515;76;26260;-41
2022/04/06 10:10:23;;;;;;;18.77;7.00;;;;;;;;;;1863120;75;26275;-41
2022/04/06 10:12:49;;;;;;;18.07;7.28;;;;;;;;;;1847582;75;26292;-40
2022/04/06 10:15:17;;;;;;;17.98;7.22;;;;;;;;;;1855666;75;26048;-35
2022/04/06 10:17:45;;;;;;;21.00;7.30;;;;;;;;;;1850576;75;26279;-40
2022/04/06 10:20:14;;;;;;;23.45;9.13;;;;;;;;;;1857099;76;26234;-40
2022/04/06 10:22:59;;;;;;;21.12;7.95;;;;;;;;;;1844992;76;26844;-33
2022/04/06 10:25:29;;;;;;;19.60;6.92;;;;;;;;;;1864703;76;26292;-36
2022/04/06 10:27:56;;;;;;;18.45;7.30;;;;;;;;;;1849411;76;26302;-41
2022/04/06 10:30:26;;;;;;;14.40;6.42;;;;;;;;;;1860585;76;26237;-36
2022/04/06 10:32:54;;;;;;;18.15;6.50;;;;;;;;;;1847423;76;26809;-38
2022/04/06 10:35:26;;;;;;;17.70;6.08;;;;;;;;;;1846280;76;26252;-35
2022/04/06 10:37:55;;;;;;;13.88;6.22;;;;;;;;;;1853960;76;26339;-41
2022/04/06 10:40:23;;;;;;;13.05;5.53;;;;;;;;;;1852323;75;26229;-34
2022/04/06 10:42:50;;;;;;;12.65;5.80;;;;;;;;;;1850318;76;26766;-43
2022/04/06 10:45:29;;;;;;;13.32;5.72;;;;;;;;;;1847089;75;26229;-40
2022/04/06 10:48:09;;;;;;;12.15;4.90;;;;;;;;;;1845592;76;26640;-38
2022/04/06 10:50:36;;;;;;;13.78;5.17;;;;;;;;;;1843844;76;26311;-39
2022/04/06 10:53:20;;;;;;;13.05;5.10;;;;;;;;;;1852527;76;26243;-35
2022/04/06 10:56:03;;;;;;;10.75;4.83;;;;;;;;;;1845853;76;26237;-40
2022/04/06 10:58:48;;;;;;;10.50;4.30;;;;;;;;;;1876737;75;26336;-36
2022/04/06 11:01:16;;;;;;;10.72;4.60;;;;;;;;;;1887924;74;26241;-37
2022/04/06 11:03:45;;;;;;;7.83;4.22;;;;;;;;;;1890605;74;26317;-43
2022/04/06 11:06:13;;;;;;;10.50;3.92;;;;;;;;;;1897565;74;26611;-36
2022/04/06 11:11:44;;;;;;;7.30;3.80;;;;;;;;;;1883083;74;26289;-44
2022/04/06 11:14:13;;;;;;;6.50;3.65;;;;;;;;;;1884503;75;26736;-38
2022/04/06 11:16:41;;;;;;;6.20;3.45;;;;;;;;;;1881399;74;26296;-49
2022/04/06 11:19:08;;;;;;;7.15;3.27;;;;;;;;;;1887257;74;26317;-34
2022/04/06 11:21:36;;;;;;;9.38;3.45;;;;;;;;;;1886176;74;26245;-37
2022/04/06 11:24:03;;;;;;;5.37;2.58;;;;;;;;;;1883851;74;26551;-40
2022/04/06 11:26:32;;;;;;;4.80;2.90;;;;;;;;;;1923682;74;26224;-36
2022/04/06 11:28:59;;;;;;;5.05;2.72;;;;;;;;;;1888435;74;26254;-35
2022/04/06 11:31:27;;;;;;;6.45;2.90;;;;;;;;;;1878445;74;26256;-34
2022/04/06 11:33:55;;;;;;;4.00;1.95;;;;;;;;;;1885817;74;26345;-39
2022/04/06 11:36:22;;;;;;;4.60;1.95;;;;;;;;;;1911571;74;26820;-36
2022/04/06 11:38:50;;;;;;;4.60;2.02;;;;;;;;;;1893286;75;26685;-34
2022/04/06 11:41:19;;;;;;;2.77;1.67;;;;;;;;;;1881368;75;26358;-40
2022/04/06 11:43:48;;;;;;;2.75;1.80;;;;;;;;;;1900247;74;26756;-37
2022/04/06 11:46:15;;;;;;;3.33;1.60;;;;;;;;;;1890744;74;26690;-40
2022/04/06 11:48:43;;;;;;;4.97;1.67;;;;;;;;;;1882718;74;26764;-49
2022/04/06 11:51:11;;;;;;;2.30;1.75;;;;;;;;;;1895281;74;26285;-39
2022/04/06 11:53:38;;;;;;;4.90;1.60;;;;;;;;;;1889307;75;26832;-35
2022/04/06 11:56:06;;;;;;;2.70;1.60;;;;;;;;;;1891304;74;26326;-34
2022/04/06 11:58:39;;;;;;;1.98;1.30;;;;;;;;;;1903475;74;26725;-39
2022/04/06 12:01:11;;;;;;;1.30;1.20;;;;;;;;;;1888421;74;26308;-38
2022/04/06 12:03:39;;;;;;;1.70;1.30;;;;;;;;;;1895227;74;26242;-43
2022/04/06 12:06:09;;;;;;;1.50;1.30;;;;;;;;;;1876124;74;26240;-39
2022/04/06 12:08:37;;;;;;;1.80;1.12;;;;;;;;;;1883137;74;26259;-50
2022/04/06 12:11:05;;;;;;;1.40;1.10;;;;;;;;;;1892158;74;26321;-39
2022/04/06 12:13:33;;;;;;;1.42;1.20;;;;;;;;;;1884036;74;26252;-44
2022/04/06 12:16:02;;;;;;;4.08;1.20;;;;;;;;;;1887330;75;26692;-39
2022/04/06 12:18:30;;;;;;;1.35;1.10;;;;;;;;;;1890962;74;26217;-39
2022/04/06 12:20:59;;;;;;;1.00;1.00;;;;;;;;;;1882746;74;26239;-34
2022/04/06 12:23:27;;;;;;;1.30;1.20;;;;;;;;;;1892816;74;26302;-45
2022/04/06 12:25:59;;;;;;;1.20;1.10;;;;;;;;;;1884349;75;26294;-35
2022/04/06 12:28:27;;;;;;;0.98;0.98;;;;;;;;;;1887585;74;26318;-41
2022/04/06 12:30:58;;;;;;;3.22;1.27;;;;;;;;;;1883642;75;26256;-38
2022/04/06 12:33:42;;;;;;;0.90;0.90;;;;;;;;;;1887673;74;26248;-45
2022/04/06 12:36:17;;;;;;;0.88;0.80;;;;;;;;;;1886031;74;26172;-42
2022/04/06 12:38:58;;;;;;;1.07;0.80;;;;;;;;;;1891984;74;26205;-40
2022/04/06 12:41:26;;;;;;;0.95;0.70;;;;;;;;;;1891343;74;26722;-39
2022/04/06 12:43:54;;;;;;;0.70;0.70;;;;;;;;;;1884710;75;26714;-33
2022/04/06 12:46:38;;;;;;;0.75;0.75;;;;;;;;;;1917568;74;26234;-33
2022/04/06 12:49:22;;;;;;;2.50;0.60;;;;;;;;;;1906240;74;26264;-35
2022/04/06 12:51:50;;;;;;;1.55;0.50;;;;;;;;;;1882825;74;26294;-38
2022/04/06 12:54:18;;;;;;;3.98;0.60;;;;;;;;;;1881787;74;26233;-34
2022/04/06 12:57:03;;;;;;;0.68;0.68;;;;;;;;;;1873492;74;26712;-41
2022/04/06 12:59:37;;;;;;;0.50;0.50;;;;;;;;;;1892877;74;26284;-41
2022/04/06 13:02:05;;;;;;;0.82;0.65;;;;;;;;;;1912507;75;26668;-38
2022/04/06 13:04:33;;;;;;;0.40;0.40;;;;;;;;;;1906992;73;26318;-38
2022/04/06 13:07:00;;;;;;;0.60;0.60;;;;;;;;;;1908694;73;26685;-37
2022/04/06 13:09:27;;;;;;;1.98;0.50;;;;;;;;;;1923174;73;27148;-39
2022/04/06 13:11:54;;;;;;;0.50;0.50;;;;;;;;;;1896881;73;27926;-40
2022/04/06 13:14:23;;;;;;;1.98;0.50;;;;;;;;;;1895488;74;26251;-32
2022/04/06 13:16:51;;;;;;;0.93;0.50;;;;;;;;;;1894351;73;26248;-35
2022/04/06 13:19:18;;;;;;;0.88;0.50;;;;;;;;;;1906820;73;26329;-35
2022/04/06 13:21:45;;;;;;;0.37;0.37;;;;;;;;;;1898972;73;26240;-42
2022/04/06 13:24:13;;;;;;;1.45;0.50;;;;;;;;;;1895670;73;25703;-37
2022/04/06 13:26:40;;;;;;;0.42;0.42;;;;;;;;;;1900332;73;26681;-41
2022/04/06 13:29:08;;;;;;;0.23;0.23;;;;;;;;;;1916671;75;26776;-38
2022/04/06 13:31:39;;;;;;;1.10;0.50;;;;;;;;;;1913390;73;26336;-45
2022/04/06 13:34:04;;;;;;;0.53;0.40;;;;;;;;;;1897194;74;26369;-33
2022/04/06 13:36:33;;;;;;;1.07;0.30;;;;;;;;;;1906811;73;26238;-34
2022/04/06 13:39:00;;;;;;;0.40;0.20;;;;;;;;;;1899571;73;28418;-37
2022/04/06 13:41:28;;;;;;;0.33;0.30;;;;;;;;;;1899237;73;26281;-43
2022/04/06 13:43:55;;;;;;;0.65;0.20;;;;;;;;;;1896484;75;26298;-35
2022/04/06 13:46:22;;;;;;;0.37;0.13;;;;;;;;;;1902546;75;26210;-37
2022/04/06 13:48:51;;;;;;;0.40;0.30;;;;;;;;;;1895096;75;26234;-38
2022/04/06 13:51:19;;;;;;;0.40;0.28;;;;;;;;;;1933842;73;26317;-40
2022/04/06 13:53:46;;;;;;;0.30;0.30;;;;;;;;;;1915530;75;26174;-42
2022/04/06 13:56:13;;;;;;;0.10;0.10;;;;;;;;;;1916761;74;26245;-35
2022/04/06 13:58:41;;;;;;;0.50;0.50;;;;;;;;;;1903452;75;26282;-38
2022/04/06 14:01:08;;;;;;;1.62;0.53;;;;;;;;;;1905333;75;26350;-41
2022/04/06 14:03:37;;;;;;;0.20;0.20;;;;;;;;;;1891224;75;26230;-40
2022/04/06 14:06:05;;;;;;;0.10;0.10;;;;;;;;;;1892080;75;26252;-43
2022/04/06 14:08:33;;;;;;;0.20;0.20;;;;;;;;;;1885414;75;26704;-43
2022/04/06 14:11:00;;;;;;;0.37;0.20;;;;;;;;;;1897646;74;26332;-39
2022/04/06 14:13:28;;;;;;;0.60;0.20;;;;;;;;;;1874945;75;26246;-51
2022/04/06 14:15:56;;;;;;;0.10;0.10;;;;;;;;;;1901328;74;26233;-39
2022/04/06 14:18:23;;;;;;;0.20;0.20;;;;;;;;;;1886942;74;26685;-49
2022/04/06 14:20:50;;;;;;;0.20;0.20;;;;;;;;;;1885655;74;26299;-39
2022/04/06 14:23:17;;;;;;;1.07;0.30;;;;;;;;;;1883357;74;26297;-50
2022/04/06 14:25:45;;;;;;;0.10;0.10;;;;;;;;;;1886221;74;26307;-40
2022/04/06 14:28:12;;;;;;;0.20;0.20;;;;;;;;;;1883566;75;26304;-39
2022/04/06 14:30:48;;;;;;;1.65;0.30;;;;;;;;;;1884577;74;26295;-43
2022/04/06 14:33:09;;;;;;;0.68;0.20;;;;;;;;;;1873191;74;26292;-44
2022/04/06 14:35:36;;;;;;;1.25;0.30;;;;;;;;;;1880981;74;26166;-42
2022/04/06 14:38:04;;;;;;;0.33;0.30;;;;;;;;;;1889451;74;26668;-41
2022/04/06 14:40:31;;;;;;;0.42;0.35;;;;;;;;;;1894308;74;26229;-45
2022/04/06 14:42:59;;;;;;;3.20;0.40;;;;;;;;;;1878415;74;26322;-38
2022/04/06 14:45:26;;;;;;;4.35;0.30;;;;;;;;;;1886961;74;26307;-34
2022/04/06 14:47:54;;;;;;;0.53;0.23;;;;;;;;;;1907467;74;26234;-34
2022/04/06 14:50:21;;;;;;;3.60;0.40;;;;;;;;;;1873771;74;26293;-38
2022/04/06 14:52:50;;;;;;;0.57;0.35;;;;;;;;;;1890893;74;26313;-44
2022/04/06 14:55:18;;;;;;;1.87;0.30;;;;;;;;;;1902546;74;26684;-36
2022/04/06 14:57:47;;;;;;;3.20;0.30;;;;;;;;;;1916096;74;26331;-33
2022/04/06 15:00:16;;;;;;;0.20;0.20;;;;;;;;;;1876922;75;26294;-41